CheckWX is a tool to help pilots better visualize weather data.  It is not intended as a substitute for an official pre-flight weather briefing.

20:09:16 UTC

EGPK TAF
Glasgow Prestwick Airport
Glasgow, United Kingdom
TAF EGPK 261659Z 2618/2718 23012KT 9999 FEW018 SCT025 BECMG 2618/2621 15010KT TEMPO 2622/2702 7000 -RA BKN014 PROB30 TEMPO 2623/2702 4000 SHRASN BECMG 2700/2704 21011KT TEMPO 2708/2715 22015G25KT PROB30 TEMPO 2713/2718 6000 SHRA SHRAGS BKN014CB

Jan-26@
18:00 UTC

Jan-26 @ 18:00 UTC

Jan-27@
18:00 UTC

Jan-27 @ 18:00 UTC

TAF EGPK 261659Z 2618/2718 23012KT 9999 FEW018 SCT025
Wind
  • 230° at 12 KTS
Cloud Levels
  • Few at 1,800' AGL
  • Scattered at 2,500' AGL

Jan-26@
18:00 UTC

Jan-26 @ 18:00 UTC

Jan-27@
00:00 UTC

Jan-27 @ 00:00 UTC

BECMG 2618/2621 15010KT

Becoming

Becoming Conditions expected by Sun, Jan 26, 2020 @ 21:00 UTC

Wind
  • 150° at 10 KTS
Cloud Levels
  • Few at 1,800' AGL
  • Scattered at 2,500' AGL

Jan-26@
22:00 UTC

Jan-26 @ 22:00 UTC

Jan-27@
02:00 UTC

Jan-27 @ 02:00 UTC

TEMPO 2622/2702 7000 -RA BKN014

Temporary

Temporary Changes expected for less than half the time period

Conditions
Light Rain
Cloud Levels
  • Broken at 1,400' AGL

Jan-26@
23:00 UTC

Jan-26 @ 23:00 UTC

Jan-27@
02:00 UTC

Jan-27 @ 02:00 UTC

PROB30 TEMPO 2623/2702 4000 SHRASN

Temporary - 30% Likelihood

Temporary - 30% Likelihood during this time.

Conditions
Rain, Snow

Jan-27@
00:00 UTC

Jan-27 @ 00:00 UTC

Jan-27@
18:00 UTC

Jan-27 @ 18:00 UTC

BECMG 2700/2704 21011KT

Becoming

Becoming Conditions expected by Mon, Jan 27, 2020 @ 04:00 UTC

Wind
  • 210° at 11 KTS
Cloud Levels
  • Few at 1,800' AGL
  • Scattered at 2,500' AGL

Jan-27@
08:00 UTC

Jan-27 @ 08:00 UTC

Jan-27@
15:00 UTC

Jan-27 @ 15:00 UTC

TEMPO 2708/2715 22015G25KT

Temporary

Temporary Changes expected for less than half the time period

Wind
  • 220° at 15 KTS
  • {Gusting to 25 KTS

Jan-27@
13:00 UTC

Jan-27 @ 13:00 UTC

Jan-27@
18:00 UTC

Jan-27 @ 18:00 UTC

PROB30 TEMPO 2713/2718 6000 SHRA SHRAGS BKN014CB

Temporary - 30% Likelihood

Temporary - 30% Likelihood during this time.

Conditions
Rain, Rain, Small hail
Cloud Levels
  • Broken at 1,400' AGL